sensor_id;sensor_type;location;lat;lon;timestamp;P1;durP1;ratioP1;P2;durP2;ratioP2
52618;SDS011;38513;53.234;6.568;2023-02-22T00:00:35;93.70;;;40.15;;
52618;SDS011;38513;53.234;6.568;2023-02-22T00:03:12;98.23;;;42.43;;
52618;SDS011;38513;53.234;6.568;2023-02-22T00:05:40;92.43;;;41.65;;
52618;SDS011;38513;53.234;6.568;2023-02-22T00:08:11;93.85;;;41.55;;
52618;SDS011;38513;53.234;6.568;2023-02-22T00:10:37;88.35;;;40.97;;
52618;SDS011;38513;53.234;6.568;2023-02-22T00:13:04;86.47;;;39.08;;
52618;SDS011;38513;53.234;6.568;2023-02-22T00:15:31;85.78;;;38.33;;
52618;SDS011;38513;53.234;6.568;2023-02-22T00:17:57;85.78;;;39.20;;
52618;SDS011;38513;53.234;6.568;2023-02-22T00:20:23;84.47;;;37.85;;
52618;SDS011;38513;53.234;6.568;2023-02-22T00:22:50;81.63;;;38.42;;
52618;SDS011;38513;53.234;6.568;2023-02-22T00:25:20;81.30;;;37.93;;
52618;SDS011;38513;53.234;6.568;2023-02-22T00:27:47;82.07;;;36.83;;
52618;SDS011;38513;53.234;6.568;2023-02-22T00:30:18;80.07;;;36.33;;
52618;SDS011;38513;53.234;6.568;2023-02-22T00:32:45;77.53;;;35.72;;
52618;SDS011;38513;53.234;6.568;2023-02-22T00:35:15;78.65;;;36.58;;
52618;SDS011;38513;53.234;6.568;2023-02-22T00:37:42;78.85;;;36.03;;
52618;SDS011;38513;53.234;6.568;2023-02-22T00:40:09;77.40;;;35.93;;
52618;SDS011;38513;53.234;6.568;2023-02-22T00:42:35;79.78;;;35.53;;
52618;SDS011;38513;53.234;6.568;2023-02-22T00:45:02;78.40;;;35.35;;
52618;SDS011;38513;53.234;6.568;2023-02-22T00:47:28;78.60;;;35.50;;
52618;SDS011;38513;53.234;6.568;2023-02-22T00:49:55;71.50;;;34.03;;
52618;SDS011;38513;53.234;6.568;2023-02-22T00:52:21;78.20;;;35.22;;
52618;SDS011;38513;53.234;6.568;2023-02-22T00:54:47;75.57;;;34.38;;
52618;SDS011;38513;53.234;6.568;2023-02-22T00:57:14;74.30;;;34.03;;
52618;SDS011;38513;53.234;6.568;2023-02-22T00:59:40;76.78;;;35.47;;
52618;SDS011;38513;53.234;6.568;2023-02-22T01:02:06;75.25;;;35.42;;
52618;SDS011;38513;53.234;6.568;2023-02-22T01:04:34;77.57;;;35.92;;
52618;SDS011;38513;53.234;6.568;2023-02-22T01:07:00;75.47;;;34.40;;
52618;SDS011;38513;53.234;6.568;2023-02-22T01:09:27;70.63;;;33.30;;
52618;SDS011;38513;53.234;6.568;2023-02-22T01:11:53;74.50;;;34.03;;
52618;SDS011;38513;53.234;6.568;2023-02-22T01:14:20;72.30;;;34.25;;
52618;SDS011;38513;53.234;6.568;2023-02-22T01:16:48;73.75;;;33.67;;
52618;SDS011;38513;53.234;6.568;2023-02-22T01:19:15;74.18;;;33.85;;
52618;SDS011;38513;53.234;6.568;2023-02-22T01:21:41;71.47;;;32.58;;
52618;SDS011;38513;53.234;6.568;2023-02-22T01:24:07;69.65;;;32.53;;
52618;SDS011;38513;53.234;6.568;2023-02-22T01:26:34;67.47;;;31.17;;
52618;SDS011;38513;53.234;6.568;2023-02-22T01:29:00;61.50;;;30.38;;
52618;SDS011;38513;53.234;6.568;2023-02-22T01:31:26;61.17;;;29.87;;
52618;SDS011;38513;53.234;6.568;2023-02-22T01:33:52;55.33;;;28.23;;
52618;SDS011;38513;53.234;6.568;2023-02-22T01:36:18;56.92;;;28.55;;
52618;SDS011;38513;53.234;6.568;2023-02-22T01:38:44;57.38;;;28.95;;
52618;SDS011;38513;53.234;6.568;2023-02-22T01:41:11;54.83;;;27.23;;
52618;SDS011;38513;53.234;6.568;2023-02-22T01:43:37;51.35;;;26.90;;
52618;SDS011;38513;53.234;6.568;2023-02-22T01:46:05;52.13;;;26.80;;
52618;SDS011;38513;53.234;6.568;2023-02-22T01:48:44;49.97;;;25.73;;
52618;SDS011;38513;53.234;6.568;2023-02-22T01:51:11;48.05;;;25.95;;
52618;SDS011;38513;53.234;6.568;2023-02-22T01:53:52;43.45;;;24.50;;
52618;SDS011;38513;53.234;6.568;2023-02-22T01:56:20;46.38;;;24.63;;
52618;SDS011;38513;53.234;6.568;2023-02-22T01:58:48;44.88;;;24.17;;
52618;SDS011;38513;53.234;6.568;2023-02-22T02:01:15;43.03;;;23.75;;
52618;SDS011;38513;53.234;6.568;2023-02-22T02:03:42;43.88;;;24.23;;
52618;SDS011;38513;53.234;6.568;2023-02-22T02:06:13;40.20;;;22.48;;
52618;SDS011;38513;53.234;6.568;2023-02-22T02:08:42;37.78;;;21.65;;
52618;SDS011;38513;53.234;6.568;2023-02-22T02:11:14;33.90;;;20.65;;
52618;SDS011;38513;53.234;6.568;2023-02-22T02:13:41;36.75;;;20.63;;
52618;SDS011;38513;53.234;6.568;2023-02-22T02:16:07;37.63;;;21.27;;
52618;SDS011;38513;53.234;6.568;2023-02-22T02:18:33;35.75;;;20.65;;
52618;SDS011;38513;53.234;6.568;2023-02-22T02:34:18;38.65;;;21.90;;
52618;SDS011;38513;53.234;6.568;2023-02-22T02:39:26;39.80;;;22.98;;
52618;SDS011;38513;53.234;6.568;2023-02-22T02:41:57;37.63;;;22.33;;
52618;SDS011;38513;53.234;6.568;2023-02-22T02:47:01;41.97;;;23.77;;
52618;SDS011;38513;53.234;6.568;2023-02-22T02:49:29;38.83;;;22.85;;
52618;SDS011;38513;53.234;6.568;2023-02-22T02:51:56;42.37;;;23.47;;
52618;SDS011;38513;53.234;6.568;2023-02-22T02:54:23;41.35;;;24.15;;
52618;SDS011;38513;53.234;6.568;2023-02-22T02:56:49;40.63;;;23.27;;
52618;SDS011;38513;53.234;6.568;2023-02-22T02:59:26;41.97;;;24.05;;
52618;SDS011;38513;53.234;6.568;2023-02-22T03:07:13;40.85;;;24.20;;
52618;SDS011;38513;53.234;6.568;2023-02-22T03:10:02;42.67;;;24.70;;
52618;SDS011;38513;53.234;6.568;2023-02-22T03:12:39;42.78;;;24.80;;
52618;SDS011;38513;53.234;6.568;2023-02-22T03:17:52;44.08;;;25.00;;
52618;SDS011;38513;53.234;6.568;2023-02-22T03:26:12;45.53;;;25.88;;
52618;SDS011;38513;53.234;6.568;2023-02-22T03:28:36;45.88;;;26.75;;
52618;SDS011;38513;53.234;6.568;2023-02-22T03:31:11;46.85;;;26.90;;
52618;SDS011;38513;53.234;6.568;2023-02-22T03:33:39;46.40;;;27.25;;
52618;SDS011;38513;53.234;6.568;2023-02-22T03:36:08;45.70;;;26.80;;
52618;SDS011;38513;53.234;6.568;2023-02-22T03:38:37;47.83;;;27.73;;
52618;SDS011;38513;53.234;6.568;2023-02-22T03:41:05;46.93;;;28.13;;
52618;SDS011;38513;53.234;6.568;2023-02-22T03:43:33;50.95;;;28.13;;
52618;SDS011;38513;53.234;6.568;2023-02-22T03:46:02;50.72;;;28.60;;
52618;SDS011;38513;53.234;6.568;2023-02-22T03:51:08;47.93;;;27.83;;
52618;SDS011;38513;53.234;6.568;2023-02-22T03:53:35;49.72;;;28.38;;
52618;SDS011;38513;53.234;6.568;2023-02-22T03:56:01;48.83;;;28.15;;
52618;SDS011;38513;53.234;6.568;2023-02-22T03:58:31;50.75;;;28.67;;
52618;SDS011;38513;53.234;6.568;2023-02-22T04:00:59;51.97;;;29.00;;
52618;SDS011;38513;53.234;6.568;2023-02-22T04:03:25;45.75;;;27.08;;
52618;SDS011;38513;53.234;6.568;2023-02-22T04:05:51;50.38;;;28.52;;
52618;SDS011;38513;53.234;6.568;2023-02-22T04:08:18;50.15;;;28.88;;
52618;SDS011;38513;53.234;6.568;2023-02-22T04:10:44;50.58;;;28.10;;
52618;SDS011;38513;53.234;6.568;2023-02-22T04:13:10;50.67;;;28.77;;
52618;SDS011;38513;53.234;6.568;2023-02-22T04:15:38;48.93;;;28.47;;
52618;SDS011;38513;53.234;6.568;2023-02-22T04:18:05;49.67;;;27.87;;
52618;SDS011;38513;53.234;6.568;2023-02-22T04:20:31;50.42;;;28.88;;
52618;SDS011;38513;53.234;6.568;2023-02-22T04:22:58;53.95;;;29.25;;
52618;SDS011;38513;53.234;6.568;2023-02-22T04:25:25;50.40;;;28.25;;
52618;SDS011;38513;53.234;6.568;2023-02-22T04:27:51;49.45;;;28.52;;
52618;SDS011;38513;53.234;6.568;2023-02-22T04:30:18;52.33;;;29.80;;
52618;SDS011;38513;53.234;6.568;2023-02-22T04:32:45;54.50;;;29.60;;
52618;SDS011;38513;53.234;6.568;2023-02-22T04:35:11;51.78;;;29.77;;
52618;SDS011;38513;53.234;6.568;2023-02-22T04:37:37;54.92;;;29.98;;
52618;SDS011;38513;53.234;6.568;2023-02-22T04:40:04;51.53;;;28.77;;
52618;SDS011;38513;53.234;6.568;2023-02-22T04:42:34;52.30;;;29.55;;
52618;SDS011;38513;53.234;6.568;2023-02-22T04:45:00;53.15;;;29.98;;
52618;SDS011;38513;53.234;6.568;2023-02-22T04:47:26;54.85;;;30.63;;
52618;SDS011;38513;53.234;6.568;2023-02-22T04:49:52;54.77;;;30.67;;
52618;SDS011;38513;53.234;6.568;2023-02-22T04:52:19;54.70;;;30.80;;
52618;SDS011;38513;53.234;6.568;2023-02-22T04:54:45;55.15;;;30.92;;
52618;SDS011;38513;53.234;6.568;2023-02-22T04:57:11;57.38;;;31.50;;
52618;SDS011;38513;53.234;6.568;2023-02-22T04:59:37;56.92;;;31.45;;
52618;SDS011;38513;53.234;6.568;2023-02-22T05:02:04;57.78;;;32.97;;
52618;SDS011;38513;53.234;6.568;2023-02-22T05:04:30;63.83;;;36.03;;
52618;SDS011;38513;53.234;6.568;2023-02-22T05:06:57;63.83;;;36.15;;
52618;SDS011;38513;53.234;6.568;2023-02-22T05:09:23;68.00;;;37.10;;
52618;SDS011;38513;53.234;6.568;2023-02-22T05:11:49;65.28;;;36.03;;
52618;SDS011;38513;53.234;6.568;2023-02-22T05:14:15;64.15;;;35.50;;
52618;SDS011;38513;53.234;6.568;2023-02-22T05:16:42;67.43;;;36.30;;
52618;SDS011;38513;53.234;6.568;2023-02-22T05:19:08;60.25;;;33.85;;
52618;SDS011;38513;53.234;6.568;2023-02-22T05:21:34;61.70;;;34.53;;
52618;SDS011;38513;53.234;6.568;2023-02-22T05:24:01;62.38;;;33.95;;
52618;SDS011;38513;53.234;6.568;2023-02-22T05:26:27;60.17;;;34.37;;
52618;SDS011;38513;53.234;6.568;2023-02-22T05:28:53;61.17;;;34.17;;
52618;SDS011;38513;53.234;6.568;2023-02-22T05:31:19;63.35;;;35.42;;
52618;SDS011;38513;53.234;6.568;2023-02-22T05:33:46;62.35;;;34.65;;
52618;SDS011;38513;53.234;6.568;2023-02-22T05:36:12;69.00;;;35.20;;
52618;SDS011;38513;53.234;6.568;2023-02-22T05:38:38;63.80;;;35.72;;
52618;SDS011;38513;53.234;6.568;2023-02-22T05:41:07;66.00;;;36.30;;
52618;SDS011;38513;53.234;6.568;2023-02-22T05:43:35;65.75;;;36.00;;
52618;SDS011;38513;53.234;6.568;2023-02-22T05:46:01;66.18;;;36.58;;
52618;SDS011;38513;53.234;6.568;2023-02-22T05:48:27;65.90;;;37.17;;
52618;SDS011;38513;53.234;6.568;2023-02-22T05:50:53;69.35;;;36.30;;
52618;SDS011;38513;53.234;6.568;2023-02-22T05:53:20;70.70;;;37.65;;
52618;SDS011;38513;53.234;6.568;2023-02-22T05:55:48;68.32;;;37.78;;
52618;SDS011;38513;53.234;6.568;2023-02-22T05:58:14;68.72;;;37.13;;
52618;SDS011;38513;53.234;6.568;2023-02-22T06:00:40;67.50;;;36.40;;
52618;SDS011;38513;53.234;6.568;2023-02-22T06:03:09;68.97;;;37.63;;
52618;SDS011;38513;53.234;6.568;2023-02-22T06:05:36;71.97;;;38.42;;
52618;SDS011;38513;53.234;6.568;2023-02-22T06:08:06;69.32;;;39.00;;
52618;SDS011;38513;53.234;6.568;2023-02-22T06:10:33;73.80;;;39.03;;
52618;SDS011;38513;53.234;6.568;2023-02-22T06:12:59;73.78;;;39.35;;
52618;SDS011;38513;53.234;6.568;2023-02-22T06:15:26;78.35;;;41.42;;
52618;SDS011;38513;53.234;6.568;2023-02-22T06:17:52;79.20;;;41.85;;
52618;SDS011;38513;53.234;6.568;2023-02-22T06:20:20;80.93;;;43.30;;
52618;SDS011;38513;53.234;6.568;2023-02-22T06:22:47;82.43;;;42.78;;
52618;SDS011;38513;53.234;6.568;2023-02-22T06:25:19;82.47;;;43.08;;
52618;SDS011;38513;53.234;6.568;2023-02-22T06:27:53;84.07;;;43.47;;
52618;SDS011;38513;53.234;6.568;2023-02-22T06:30:29;88.30;;;44.35;;
52618;SDS011;38513;53.234;6.568;2023-02-22T06:32:55;85.80;;;44.25;;
52618;SDS011;38513;53.234;6.568;2023-02-22T06:35:21;86.20;;;44.15;;
52618;SDS011;38513;53.234;6.568;2023-02-22T06:37:48;86.20;;;44.70;;
52618;SDS011;38513;53.234;6.568;2023-02-22T06:40:14;86.18;;;44.05;;
52618;SDS011;38513;53.234;6.568;2023-02-22T06:42:40;85.97;;;45.33;;
52618;SDS011;38513;53.234;6.568;2023-02-22T06:45:07;97.78;;;47.65;;
52618;SDS011;38513;53.234;6.568;2023-02-22T06:47:36;85.60;;;46.15;;
52618;SDS011;38513;53.234;6.568;2023-02-22T06:50:03;90.53;;;46.87;;
52618;SDS011;38513;53.234;6.568;2023-02-22T06:52:33;93.45;;;47.10;;
52618;SDS011;38513;53.234;6.568;2023-02-22T06:54:59;88.05;;;47.40;;
52618;SDS011;38513;53.234;6.568;2023-02-22T06:57:25;95.57;;;49.03;;
52618;SDS011;38513;53.234;6.568;2023-02-22T06:59:51;92.03;;;49.00;;
52618;SDS011;38513;53.234;6.568;2023-02-22T07:02:18;100.78;;;49.58;;
52618;SDS011;38513;53.234;6.568;2023-02-22T07:04:44;96.72;;;49.83;;
52618;SDS011;38513;53.234;6.568;2023-02-22T07:07:10;94.35;;;50.42;;
52618;SDS011;38513;53.234;6.568;2023-02-22T07:09:36;94.15;;;48.97;;
52618;SDS011;38513;53.234;6.568;2023-02-22T07:12:02;89.97;;;48.37;;
52618;SDS011;38513;53.234;6.568;2023-02-22T07:14:29;98.10;;;50.70;;
52618;SDS011;38513;53.234;6.568;2023-02-22T07:16:55;92.40;;;49.33;;
52618;SDS011;38513;53.234;6.568;2023-02-22T07:19:21;95.05;;;49.65;;
52618;SDS011;38513;53.234;6.568;2023-02-22T07:21:48;99.43;;;50.35;;
52618;SDS011;38513;53.234;6.568;2023-02-22T07:24:17;103.82;;;51.17;;
52618;SDS011;38513;53.234;6.568;2023-02-22T07:26:50;99.87;;;51.07;;
52618;SDS011;38513;53.234;6.568;2023-02-22T07:29:16;102.05;;;51.38;;
52618;SDS011;38513;53.234;6.568;2023-02-22T07:31:42;100.80;;;51.10;;
52618;SDS011;38513;53.234;6.568;2023-02-22T07:34:08;101.55;;;51.28;;
52618;SDS011;38513;53.234;6.568;2023-02-22T07:36:35;102.95;;;53.35;;
52618;SDS011;38513;53.234;6.568;2023-02-22T07:39:01;108.63;;;53.67;;
52618;SDS011;38513;53.234;6.568;2023-02-22T07:41:27;106.97;;;53.10;;
52618;SDS011;38513;53.234;6.568;2023-02-22T07:43:53;105.47;;;52.13;;
52618;SDS011;38513;53.234;6.568;2023-02-22T07:46:19;103.15;;;52.53;;
52618;SDS011;38513;53.234;6.568;2023-02-22T07:48:52;102.88;;;53.22;;
52618;SDS011;38513;53.234;6.568;2023-02-22T07:51:18;104.00;;;51.80;;
52618;SDS011;38513;53.234;6.568;2023-02-22T07:53:45;109.45;;;52.88;;
52618;SDS011;38513;53.234;6.568;2023-02-22T07:56:11;111.95;;;54.47;;
52618;SDS011;38513;53.234;6.568;2023-02-22T07:58:37;109.50;;;54.05;;
52618;SDS011;38513;53.234;6.568;2023-02-22T08:01:03;114.45;;;55.38;;
52618;SDS011;38513;53.234;6.568;2023-02-22T08:03:30;108.13;;;54.15;;
52618;SDS011;38513;53.234;6.568;2023-02-22T08:06:00;112.35;;;54.95;;
52618;SDS011;38513;53.234;6.568;2023-02-22T08:08:27;109.78;;;53.67;;
52618;SDS011;38513;53.234;6.568;2023-02-22T08:10:54;112.50;;;54.30;;
52618;SDS011;38513;53.234;6.568;2023-02-22T08:13:20;104.18;;;54.45;;
52618;SDS011;38513;53.234;6.568;2023-02-22T08:15:49;116.07;;;56.78;;
52618;SDS011;38513;53.234;6.568;2023-02-22T08:18:16;119.78;;;56.90;;
52618;SDS011;38513;53.234;6.568;2023-02-22T08:20:44;115.40;;;55.67;;
52618;SDS011;38513;53.234;6.568;2023-02-22T08:23:11;109.85;;;55.72;;
52618;SDS011;38513;53.234;6.568;2023-02-22T08:25:37;110.50;;;56.17;;
52618;SDS011;38513;53.234;6.568;2023-02-22T08:28:08;110.40;;;55.17;;
52618;SDS011;38513;53.234;6.568;2023-02-22T08:30:36;113.35;;;56.38;;
52618;SDS011;38513;53.234;6.568;2023-02-22T08:33:03;111.60;;;55.40;;
52618;SDS011;38513;53.234;6.568;2023-02-22T08:35:31;113.60;;;58.58;;
52618;SDS011;38513;53.234;6.568;2023-02-22T08:38:01;105.70;;;54.65;;
52618;SDS011;38513;53.234;6.568;2023-02-22T08:40:30;108.57;;;54.60;;
52618;SDS011;38513;53.234;6.568;2023-02-22T08:42:56;110.95;;;56.40;;
52618;SDS011;38513;53.234;6.568;2023-02-22T08:45:23;110.80;;;55.92;;
52618;SDS011;38513;53.234;6.568;2023-02-22T08:47:50;110.57;;;56.15;;
52618;SDS011;38513;53.234;6.568;2023-02-22T08:50:21;109.72;;;56.53;;
52618;SDS011;38513;53.234;6.568;2023-02-22T08:52:48;109.18;;;56.15;;
52618;SDS011;38513;53.234;6.568;2023-02-22T08:55:19;106.90;;;54.67;;
52618;SDS011;38513;53.234;6.568;2023-02-22T09:00:33;108.82;;;55.05;;
52618;SDS011;38513;53.234;6.568;2023-02-22T09:03:00;105.45;;;55.53;;
52618;SDS011;38513;53.234;6.568;2023-02-22T09:05:27;107.93;;;55.27;;
52618;SDS011;38513;53.234;6.568;2023-02-22T09:07:53;108.80;;;55.47;;
52618;SDS011;38513;53.234;6.568;2023-02-22T09:10:21;106.88;;;55.25;;
52618;SDS011;38513;53.234;6.568;2023-02-22T09:12:49;105.72;;;56.20;;
52618;SDS011;38513;53.234;6.568;2023-02-22T09:15:16;103.75;;;53.22;;
52618;SDS011;38513;53.234;6.568;2023-02-22T09:17:43;97.72;;;52.72;;
52618;SDS011;38513;53.234;6.568;2023-02-22T09:20:10;98.93;;;52.67;;
52618;SDS011;38513;53.234;6.568;2023-02-22T09:22:37;101.55;;;53.40;;
52618;SDS011;38513;53.234;6.568;2023-02-22T09:25:03;95.55;;;51.70;;
52618;SDS011;38513;53.234;6.568;2023-02-22T09:27:30;100.50;;;52.03;;
52618;SDS011;38513;53.234;6.568;2023-02-22T09:29:56;96.47;;;52.53;;
52618;SDS011;38513;53.234;6.568;2023-02-22T09:32:23;98.88;;;51.67;;
52618;SDS011;38513;53.234;6.568;2023-02-22T09:34:52;100.32;;;52.15;;
52618;SDS011;38513;53.234;6.568;2023-02-22T09:37:20;94.93;;;50.90;;
52618;SDS011;38513;53.234;6.568;2023-02-22T09:39:47;95.32;;;51.33;;
52618;SDS011;38513;53.234;6.568;2023-02-22T09:44:57;99.07;;;52.35;;
52618;SDS011;38513;53.234;6.568;2023-02-22T09:47:33;96.77;;;52.10;;
52618;SDS011;38513;53.234;6.568;2023-02-22T09:52:36;100.05;;;52.22;;
52618;SDS011;38513;53.234;6.568;2023-02-22T09:55:06;95.80;;;52.03;;
52618;SDS011;38513;53.234;6.568;2023-02-22T09:57:36;102.28;;;56.67;;
52618;SDS011;38513;53.234;6.568;2023-02-22T10:02:38;101.33;;;52.27;;
52618;SDS011;38513;53.234;6.568;2023-02-22T10:05:12;96.63;;;51.78;;
52618;SDS011;38513;53.234;6.568;2023-02-22T10:10:15;101.93;;;53.38;;
52618;SDS011;38513;53.234;6.568;2023-02-22T10:15:25;98.10;;;52.30;;
52618;SDS011;38513;53.234;6.568;2023-02-22T10:18:10;97.65;;;52.78;;
52618;SDS011;38513;53.234;6.568;2023-02-22T10:31:45;97.20;;;50.25;;
52618;SDS011;38513;53.234;6.568;2023-02-22T10:34:13;98.65;;;52.30;;
52618;SDS011;38513;53.234;6.568;2023-02-22T10:36:40;97.70;;;51.33;;
52618;SDS011;38513;53.234;6.568;2023-02-22T10:41:54;97.70;;;49.17;;
52618;SDS011;38513;53.234;6.568;2023-02-22T10:44:20;95.97;;;50.85;;
52618;SDS011;38513;53.234;6.568;2023-02-22T10:46:47;94.07;;;49.60;;
52618;SDS011;38513;53.234;6.568;2023-02-22T10:49:20;94.07;;;50.37;;
52618;SDS011;38513;53.234;6.568;2023-02-22T10:51:55;95.03;;;49.28;;
52618;SDS011;38513;53.234;6.568;2023-02-22T10:54:24;94.85;;;49.72;;
52618;SDS011;38513;53.234;6.568;2023-02-22T10:56:52;92.03;;;49.33;;
52618;SDS011;38513;53.234;6.568;2023-02-22T10:59:26;96.15;;;49.83;;
52618;SDS011;38513;53.234;6.568;2023-02-22T11:01:53;97.90;;;49.97;;
52618;SDS011;38513;53.234;6.568;2023-02-22T11:04:20;94.43;;;49.50;;
52618;SDS011;38513;53.234;6.568;2023-02-22T11:06:48;91.60;;;48.78;;
52618;SDS011;38513;53.234;6.568;2023-02-22T11:09:16;90.40;;;48.20;;
52618;SDS011;38513;53.234;6.568;2023-02-22T11:11:43;91.93;;;49.78;;
52618;SDS011;38513;53.234;6.568;2023-02-22T11:14:10;93.73;;;50.10;;
52618;SDS011;38513;53.234;6.568;2023-02-22T11:16:39;90.00;;;49.78;;
52618;SDS011;38513;53.234;6.568;2023-02-22T11:19:26;92.25;;;50.40;;
52618;SDS011;38513;53.234;6.568;2023-02-22T11:21:57;86.22;;;48.33;;
52618;SDS011;38513;53.234;6.568;2023-02-22T11:24:24;86.40;;;48.40;;
52618;SDS011;38513;53.234;6.568;2023-02-22T11:26:55;83.50;;;46.58;;
52618;SDS011;38513;53.234;6.568;2023-02-22T11:29:33;81.97;;;47.15;;
52618;SDS011;38513;53.234;6.568;2023-02-22T11:32:02;84.70;;;47.58;;
52618;SDS011;38513;53.234;6.568;2023-02-22T11:34:32;83.00;;;47.53;;
52618;SDS011;38513;53.234;6.568;2023-02-22T11:37:17;81.67;;;46.60;;
52618;SDS011;38513;53.234;6.568;2023-02-22T11:39:43;80.03;;;47.58;;
52618;SDS011;38513;53.234;6.568;2023-02-22T11:42:20;80.93;;;47.63;;
52618;SDS011;38513;53.234;6.568;2023-02-22T11:44:47;80.63;;;46.05;;
52618;SDS011;38513;53.234;6.568;2023-02-22T11:47:13;80.05;;;45.83;;
52618;SDS011;38513;53.234;6.568;2023-02-22T11:49:43;77.72;;;45.97;;
52618;SDS011;38513;53.234;6.568;2023-02-22T11:55:28;81.80;;;46.67;;
52618;SDS011;38513;53.234;6.568;2023-02-22T12:21:12;76.57;;;41.33;;
52618;SDS011;38513;53.234;6.568;2023-02-22T12:26:23;75.27;;;40.77;;
52618;SDS011;38513;53.234;6.568;2023-02-22T12:28:51;78.65;;;40.78;;
52618;SDS011;38513;53.234;6.568;2023-02-22T12:31:37;69.33;;;39.07;;
52618;SDS011;38513;53.234;6.568;2023-02-22T12:36:40;72.13;;;39.17;;
52618;SDS011;38513;53.234;6.568;2023-02-22T12:39:22;72.85;;;39.85;;
52618;SDS011;38513;53.234;6.568;2023-02-22T12:41:49;72.40;;;38.90;;
52618;SDS011;38513;53.234;6.568;2023-02-22T12:44:21;69.18;;;38.22;;
52618;SDS011;38513;53.234;6.568;2023-02-22T12:46:49;72.55;;;38.95;;
52618;SDS011;38513;53.234;6.568;2023-02-22T12:52:02;75.43;;;42.38;;
52618;SDS011;38513;53.234;6.568;2023-02-22T12:57:19;72.18;;;40.95;;
52618;SDS011;38513;53.234;6.568;2023-02-22T12:59:50;70.05;;;38.78;;
52618;SDS011;38513;53.234;6.568;2023-02-22T13:02:19;69.28;;;38.35;;
52618;SDS011;38513;53.234;6.568;2023-02-22T13:04:45;70.53;;;37.97;;
52618;SDS011;38513;53.234;6.568;2023-02-22T13:12:44;77.00;;;41.75;;
52618;SDS011;38513;53.234;6.568;2023-02-22T13:20:30;82.25;;;42.80;;
52618;SDS011;38513;53.234;6.568;2023-02-22T13:23:08;78.95;;;41.05;;
52618;SDS011;38513;53.234;6.568;2023-02-22T13:25:47;81.28;;;42.30;;
52618;SDS011;38513;53.234;6.568;2023-02-22T13:28:32;82.95;;;41.83;;
52618;SDS011;38513;53.234;6.568;2023-02-22T13:33:33;79.80;;;41.15;;
52618;SDS011;38513;53.234;6.568;2023-02-22T13:51:39;72.33;;;37.90;;
52618;SDS011;38513;53.234;6.568;2023-02-22T13:54:18;73.63;;;38.10;;
52618;SDS011;38513;53.234;6.568;2023-02-22T13:56:46;76.70;;;37.85;;
52618;SDS011;38513;53.234;6.568;2023-02-22T13:59:46;71.50;;;37.35;;
52618;SDS011;38513;53.234;6.568;2023-02-22T14:02:05;72.30;;;37.45;;
52618;SDS011;38513;53.234;6.568;2023-02-22T14:04:34;72.25;;;37.30;;
52618;SDS011;38513;53.234;6.568;2023-02-22T14:09:55;69.22;;;36.05;;
52618;SDS011;38513;53.234;6.568;2023-02-22T14:15:12;63.63;;;34.08;;
52618;SDS011;38513;53.234;6.568;2023-02-22T14:17:39;72.72;;;35.42;;
52618;SDS011;38513;53.234;6.568;2023-02-22T14:22:41;68.45;;;36.08;;
52618;SDS011;38513;53.234;6.568;2023-02-22T14:25:41;72.53;;;38.25;;
52618;SDS011;38513;53.234;6.568;2023-02-22T14:28:00;73.95;;;37.08;;
52618;SDS011;38513;53.234;6.568;2023-02-22T14:30:29;68.32;;;36.47;;
52618;SDS011;38513;53.234;6.568;2023-02-22T14:32:56;72.75;;;37.15;;
52618;SDS011;38513;53.234;6.568;2023-02-22T14:35:24;74.78;;;36.28;;
52618;SDS011;38513;53.234;6.568;2023-02-22T14:37:55;72.10;;;36.97;;
52618;SDS011;38513;53.234;6.568;2023-02-22T14:40:24;74.05;;;37.65;;
52618;SDS011;38513;53.234;6.568;2023-02-22T14:45:27;74.22;;;37.92;;
52618;SDS011;38513;53.234;6.568;2023-02-22T14:53:19;75.28;;;37.67;;
52618;SDS011;38513;53.234;6.568;2023-02-22T14:55:57;74.40;;;37.20;;
52618;SDS011;38513;53.234;6.568;2023-02-22T14:58:35;72.20;;;36.50;;
52618;SDS011;38513;53.234;6.568;2023-02-22T15:03:44;69.93;;;36.73;;
52618;SDS011;38513;53.234;6.568;2023-02-22T15:06:17;76.53;;;37.50;;
52618;SDS011;38513;53.234;6.568;2023-02-22T15:08:44;71.33;;;36.43;;
52618;SDS011;38513;53.234;6.568;2023-02-22T15:11:27;72.05;;;37.35;;
52618;SDS011;38513;53.234;6.568;2023-02-22T15:13:57;74.47;;;37.75;;
52618;SDS011;38513;53.234;6.568;2023-02-22T15:16:25;74.78;;;37.45;;
52618;SDS011;38513;53.234;6.568;2023-02-22T15:18:53;71.25;;;37.25;;
52618;SDS011;38513;53.234;6.568;2023-02-22T15:21:22;73.10;;;36.85;;
52618;SDS011;38513;53.234;6.568;2023-02-22T15:26:20;70.80;;;36.65;;
52618;SDS011;38513;53.234;6.568;2023-02-22T15:28:51;69.63;;;37.00;;
52618;SDS011;38513;53.234;6.568;2023-02-22T15:31:32;71.88;;;36.88;;
52618;SDS011;38513;53.234;6.568;2023-02-22T15:36:37;72.05;;;37.03;;
52618;SDS011;38513;53.234;6.568;2023-02-22T15:39:03;75.18;;;37.05;;
52618;SDS011;38513;53.234;6.568;2023-02-22T15:41:33;72.50;;;37.22;;
52618;SDS011;38513;53.234;6.568;2023-02-22T15:44:01;70.57;;;36.38;;
52618;SDS011;38513;53.234;6.568;2023-02-22T15:46:28;72.75;;;36.50;;
52618;SDS011;38513;53.234;6.568;2023-02-22T15:51:37;69.15;;;35.53;;
52618;SDS011;38513;53.234;6.568;2023-02-22T15:54:04;72.45;;;37.17;;
52618;SDS011;38513;53.234;6.568;2023-02-22T15:56:33;71.30;;;36.30;;
52618;SDS011;38513;53.234;6.568;2023-02-22T15:59:18;71.82;;;37.20;;
52618;SDS011;38513;53.234;6.568;2023-02-22T16:01:45;73.43;;;37.25;;
52618;SDS011;38513;53.234;6.568;2023-02-22T16:04:19;68.43;;;36.90;;
52618;SDS011;38513;53.234;6.568;2023-02-22T16:06:46;65.78;;;35.50;;
52618;SDS011;38513;53.234;6.568;2023-02-22T16:09:13;69.13;;;37.38;;
52618;SDS011;38513;53.234;6.568;2023-02-22T16:11:44;68.27;;;37.10;;
52618;SDS011;38513;53.234;6.568;2023-02-22T16:17:09;67.63;;;35.25;;
52618;SDS011;38513;53.234;6.568;2023-02-22T16:19:40;69.50;;;36.42;;
52618;SDS011;38513;53.234;6.568;2023-02-22T16:24:53;71.15;;;37.53;;
52618;SDS011;38513;53.234;6.568;2023-02-22T16:27:24;72.15;;;38.42;;
52618;SDS011;38513;53.234;6.568;2023-02-22T16:30:05;77.25;;;39.53;;
52618;SDS011;38513;53.234;6.568;2023-02-22T16:32:33;76.32;;;39.70;;
52618;SDS011;38513;53.234;6.568;2023-02-22T16:34:59;72.18;;;38.53;;
52618;SDS011;38513;53.234;6.568;2023-02-22T16:37:25;77.22;;;39.22;;
52618;SDS011;38513;53.234;6.568;2023-02-22T16:39:52;76.97;;;38.72;;
52618;SDS011;38513;53.234;6.568;2023-02-22T16:42:19;74.47;;;38.92;;
52618;SDS011;38513;53.234;6.568;2023-02-22T16:44:51;73.70;;;39.38;;
52618;SDS011;38513;53.234;6.568;2023-02-22T16:47:18;74.85;;;38.80;;
52618;SDS011;38513;53.234;6.568;2023-02-22T16:49:47;75.93;;;39.35;;
52618;SDS011;38513;53.234;6.568;2023-02-22T16:52:16;72.10;;;37.85;;
52618;SDS011;38513;53.234;6.568;2023-02-22T16:54:49;75.38;;;38.72;;
52618;SDS011;38513;53.234;6.568;2023-02-22T16:57:18;78.70;;;39.10;;
52618;SDS011;38513;53.234;6.568;2023-02-22T16:59:47;79.70;;;39.90;;
52618;SDS011;38513;53.234;6.568;2023-02-22T17:02:17;71.28;;;38.85;;
52618;SDS011;38513;53.234;6.568;2023-02-22T17:04:43;69.25;;;37.38;;
52618;SDS011;38513;53.234;6.568;2023-02-22T17:07:16;78.60;;;39.33;;
52618;SDS011;38513;53.234;6.568;2023-02-22T17:09:42;74.57;;;39.35;;